Accueil
Images satellite Prévisions 15 joursClimatMétéo marine Cyclones Foudre AéroportsFAQ Actualités A propos
Météo : Europe Afrique Amérique du Nord Amérique du Sud Asie Australie-Océanie Autres
Langues Contact

Florennes, Belgique

Base aérienne

latitude: 50-14N, longitude: 004-39E, altitude: 279 m


METAR: EBFS 231155Z 12007G17KT 9999 FEW035 SCT250 18/07 Q1019 BLU BLU
short-TAF: EBFS 231142Z 2313/2322 18005KT 9999 FEW035 SCT250 TEMPO 2313/2322 6000 -SHRA SCT030TCU SCT100
long-TAF: EBFS 221541Z 2219/2307 18005KT 9999 FEW030 SCT050 TEMPO 2219/2220 7000 SHRA SCT020 SCT200 BECMG 2221/2223 9999 FEW020 SCT060 BKN110

Heure: 14:18 (12:18 UTC)

Observation

Le bulletin a été fait il y a 23 minutes, à 11:55 UTC  
Vent 07 kt de est/sud-est avec des rafales jusqu'à 17 kt
Température 18°C
Humidité 49%
Pression 1019 hPa
Visibilité 10 km ou plus
Quelques nuages à une hauteur de 3500 ft
Nuages épars à une hauteur de 25000 ft

Changer d'unités

Prévision

Le bulletin a été fait il y a 27 minutes, à 11:51 UTC  
Prévision valable du 23 à 13 UTC au 23 à 22 UTC
Vent 05 kt de sud
Visibilité 10 km ou plus
Quelques nuages à une hauteur de 3500 ft
Nuages épars à une hauteur de 25000 ft
Temporairement
du 23 à 13 UTC au 23 à 22 UTC
Visibilité 6000 m
Nuages épars à une hauteur de 3000 ft , Cumulus congestus.
Nuages épars à une hauteur de 10000 ft
faible averses de pluie

Prévision

Le bulletin a été fait il y a 20 heures et 30 minutes, à 15:48 UTC  
Prévision valable du 22 à 19 UTC au 23 à 07 UTC
Vent 05 kt de sud
Visibilité 10 km ou plus
Quelques nuages à une hauteur de 3000 ft
Nuages épars à une hauteur de 5000 ft
Temporairement
du 22 à 19 UTC au 22 à 20 UTC
Visibilité 7000 m
Nuages épars à une hauteur de 2000 ft
Nuages épars à une hauteur de 20000 ft
averses de pluie
Evoluant progressivement
du 22 à 21 UTC au 22 à 23 UTC
Visibilité 10 km ou plus
Quelques nuages à une hauteur de 2000 ft
Nuages épars à une hauteur de 6000 ft
Nuages fragmentés à une hauteur de 11000 ft
Les informations qui figurent sur ce site font l'objet d'une clause de non-responsabilité
Météo : Europe Afrique Amérique du Nord Amérique du Sud Asie Australie-Océanie Autres
Images satellite Prévisions 15 joursClimatMétéo marine Cyclones Foudre AéroportsFAQ Langues Contact Actualités A propos